| time (UTC) | temp F | wind direction | speed MPH | gust MPH | rain 1hr in | rain 24hr in | rain mn in | humidity % | barometer mb |
| 20260507094524 | 50 | 53 | 0.0 | 0.0 | 0.02 | 0.39 | 0.33 | 92 | 1008.1 |
| 20260507093010 | 50 | 54 | 0.0 | 1.0 | 0.02 | 0.39 | 0.33 | 92 | 1007.9 |
| 20260507091513 | 50 | 267 | 0.0 | 1.0 | 0.03 | 0.39 | 0.33 | 92 | 1007.8 |
| 20260507090019 | 50 | 306 | 0.0 | 0.0 | 0.04 | 0.38 | 0.32 | 92 | 1007.5 |
| 20260507084524 | 51 | 306 | 0.0 | 0.0 | 0.05 | 0.37 | 0.31 | 92 | 1007.7 |
| 20260507083023 | 51 | 279 | 0.0 | 1.0 | 0.15 | 0.37 | 0.31 | 92 | 1007.6 |
| 20260507081508 | 51 | 257 | 0.0 | 2.0 | 0.30 | 0.36 | 0.30 | 91 | 1007.5 |
| 20260507080012 | 52 | 285 | 0.0 | 3.0 | 0.28 | 0.34 | 0.28 | 91 | 1007.3 |
| 20260507074528 | 52 | 269 | 0.0 | 3.0 | 0.26 | 0.32 | 0.26 | 90 | 1007.1 |
| 20260507073024 | 53 | 260 | 0.0 | 5.0 | 0.16 | 0.22 | 0.16 | 89 | 1008.0 |
| 20260507071531 | 54 | 271 | 0.0 | 3.0 | 0.00 | 0.06 | 0.00 | 88 | 1006.9 |
| 20260507070012 | 54 | 210 | 0.0 | 2.0 | 0.00 | 0.06 | 0.00 | 89 | 1006.5 |
| 20260507064518 | 55 | 313 | 0.0 | 4.0 | 0.00 | 0.06 | 0.00 | 90 | 1006.2 |
| 20260507063021 | 56 | 257 | 0.0 | 2.0 | 0.00 | 0.06 | 0.00 | 91 | 1006.7 |
| 20260507061531 | 56 | 251 | 0.0 | 1.0 | 0.00 | 0.06 | 0.00 | 92 | 1006.6 |
| 20260507060026 | 56 | 264 | 0.0 | 1.0 | 0.00 | 0.06 | 0.00 | 92 | 1006.6 |
| 20260507054516 | 56 | 119 | 0.0 | 1.0 | 0.00 | 0.06 | 0.00 | 92 | 1006.9 |
| 20260507053023 | 56 | 333 | 0.0 | 1.0 | 0.00 | 0.06 | 0.00 | 92 | 1006.9 |
| 20260507051522 | 57 | 302 | 0.0 | 1.0 | 0.00 | 0.06 | 0.00 | 93 | 1007.2 |
| 20260507050025 | 57 | 240 | 0.0 | 1.0 | 0.00 | 0.06 | 0.00 | 93 | 1007.3 |
| 20260507044528 | 57 | 259 | 1.0 | 4.0 | 0.00 | 0.06 | 0.00 | 93 | 1007.3 |
| 20260507043013 | 57 | 89 | 0.0 | 4.0 | 0.00 | 0.06 | 0.00 | 93 | 1007.3 |
| 20260507041520 | 57 | 236 | 0.0 | 1.0 | 0.00 | 0.06 | 0.00 | 93 | 1007.4 |
| 20260507040023 | 57 | 200 | 0.0 | 1.0 | 0.00 | 0.06 | 0.00 | 93 | 1007.2 |
| 20260507034535 | 57 | 212 | 0.0 | 0.0 | 0.00 | 0.06 | 0.06 | 93 | 1007.4 |
| 20260507033027 | 56 | 78 | 0.0 | 2.0 | 0.00 | 0.06 | 0.06 | 93 | 1007.3 |
| 20260507031516 | 56 | 223 | 0.0 | 3.0 | 0.00 | 0.06 | 0.06 | 93 | 1007.6 |
| 20260507030022 | 56 | 86 | 0.0 | 2.0 | 0.00 | 0.06 | 0.06 | 93 | 1007.4 |
| 20260507024525 | 56 | 118 | 0.0 | 2.0 | 0.00 | 0.06 | 0.06 | 93 | 1007.5 |
| 20260507023028 | 56 | 283 | 0.0 | 1.0 | 0.00 | 0.06 | 0.06 | 93 | 1007.5 |
| 20260507021528 | 56 | 112 | 0.0 | 2.0 | 0.00 | 0.06 | 0.06 | 93 | 1007.7 |
| 20260507020019 | 56 | 49 | 0.0 | 4.0 | 0.00 | 0.06 | 0.06 | 93 | 1007.8 |
| 20260507014526 | 56 | 142 | 0.0 | 1.0 | 0.00 | 0.06 | 0.06 | 93 | 1007.6 |
| 20260507013025 | 56 | 113 | 0.0 | 4.0 | 0.00 | 0.06 | 0.06 | 93 | 1007.7 |
| 20260507011527 | 56 | 97 | 2.0 | 5.0 | 0.00 | 0.06 | 0.06 | 93 | 1007.8 |
| 20260507010033 | 55 | 103 | 0.0 | 2.0 | 0.00 | 0.06 | 0.06 | 93 | 1008.0 |
| 20260507004522 | 55 | 280 | 1.0 | 4.0 | 0.00 | 0.06 | 0.06 | 93 | 1008.1 |
| 20260507003024 | 55 | 113 | 0.0 | 7.0 | 0.00 | 0.06 | 0.06 | 92 | 1007.7 |
| 20260507001530 | 55 | 233 | 1.0 | 9.0 | 0.00 | 0.06 | 0.06 | 92 | 1007.7 |
| 20260507000029 | 55 | 131 | 2.0 | 9.0 | 0.00 | 0.06 | 0.06 | 92 | 1007.7 |
| 20260506234543 | 55 | 193 | 3.0 | 9.0 | 0.00 | 0.06 | 0.06 | 92 | 1007.7 |
| 20260506233022 | 55 | 117 | 2.0 | 6.0 | 0.01 | 0.06 | 0.06 | 92 | 1007.6 |
| 20260506231525 | 55 | 112 | 2.0 | 7.0 | 0.01 | 0.06 | 0.06 | 91 | 1007.6 |
| 20260506230027 | 55 | 215 | 2.0 | 11.0 | 0.01 | 0.06 | 0.06 | 91 | 1007.8 |
| 20260506224530 | 56 | 140 | 2.0 | 6.0 | 0.02 | 0.06 | 0.06 | 91 | 1007.7 |
| 20260506223031 | 56 | 157 | 2.0 | 6.0 | 0.01 | 0.05 | 0.05 | 91 | 1007.7 |
| 20260506221520 | 56 | 199 | 1.0 | 7.0 | 0.02 | 0.05 | 0.05 | 90 | 1007.7 |
| 20260506220034 | 56 | 238 | 1.0 | 5.0 | 0.02 | 0.05 | 0.05 | 90 | 1007.6 |
| 20260506214528 | 56 | 112 | 1.0 | 6.0 | 0.01 | 0.04 | 0.04 | 90 | 1008.0 |
| 20260506213026 | 57 | 196 | 2.0 | 8.0 | 0.02 | 0.04 | 0.04 | 89 | 1008.1 |
| 20260506211527 | 57 | 130 | 3.0 | 10.0 | 0.01 | 0.03 | 0.03 | 88 | 1008.2 |
| 20260506210022 | 58 | 165 | 1.0 | 7.0 | 0.01 | 0.03 | 0.03 | 88 | 1008.3 |
| 20260506204526 | 58 | 91 | 3.0 | 10.0 | 0.01 | 0.03 | 0.03 | 87 | 1008.4 |
| 20260506203028 | 58 | 143 | 3.0 | 9.0 | 0.00 | 0.02 | 0.02 | 87 | 1008.5 |
| 20260506201526 | 58 | 347 | 2.0 | 8.0 | 0.02 | 0.02 | 0.02 | 87 | 1008.6 |
| 20260506200022 | 59 | 197 | 3.0 | 13.0 | 0.02 | 0.02 | 0.02 | 86 | 1008.8 |
| 20260506194531 | 59 | 109 | 3.0 | 10.0 | 0.02 | 0.02 | 0.02 | 86 | 1008.9 |
| 20260506193009 | 58 | 93 | 3.0 | 8.0 | 0.02 | 0.02 | 0.02 | 85 | 1009.0 |
| 20260506191512 | 59 | 96 | 1.0 | 7.0 | 0.00 | 0.00 | 0.00 | 82 | 1009.1 |
| 20260506190020 | 60 | 109 | 2.0 | 11.0 | 0.00 | 0.00 | 0.00 | 78 | 1009.3 |
| 20260506184526 | 61 | 96 | 3.0 | 10.0 | 0.00 | 0.00 | 0.00 | 75 | 1009.4 |
| 20260506183023 | 62 | 271 | 3.0 | 10.0 | 0.00 | 0.00 | 0.00 | 73 | 1009.7 |
| 20260506181510 | 62 | 203 | 2.0 | 16.0 | 0.00 | 0.00 | 0.00 | 72 | 1009.6 |
| 20260506180014 | 63 | 240 | 4.0 | 15.0 | 0.00 | 0.00 | 0.00 | 71 | 1009.8 |
| 20260506174518 | 64 | 131 | 3.0 | 15.0 | 0.00 | 0.00 | 0.00 | 69 | 1010.1 |
| 20260506173026 | 65 | 245 | 6.0 | 17.0 | 0.00 | 0.00 | 0.00 | 67 | 1010.2 |
| 20260506171525 | 66 | 108 | 4.0 | 13.0 | 0.00 | 0.00 | 0.00 | 66 | 1010.6 |
| 20260506170016 | 67 | 36 | 5.0 | 15.0 | 0.00 | 0.00 | 0.00 | 65 | 1010.3 |
| 20260506164518 | 67 | 106 | 5.0 | 16.0 | 0.00 | 0.00 | 0.00 | 64 | 1010.4 |
| 20260506163019 | 66 | 44 | 2.0 | 13.0 | 0.00 | 0.00 | 0.00 | 67 | 1010.7 |
| 20260506161524 | 66 | 141 | 6.0 | 15.0 | 0.00 | 0.00 | 0.00 | 66 | 1010.9 |
| 20260506160035 | 66 | 234 | 4.0 | 14.0 | 0.00 | 0.00 | 0.00 | 65 | 1010.9 |
| 20260506154517 | 68 | 148 | 3.0 | 15.0 | 0.00 | 0.00 | 0.00 | 63 | 1011.0 |
| 20260506153019 | 68 | 115 | 3.0 | 10.0 | 0.00 | 0.00 | 0.00 | 64 | 1011.1 |
| 20260506151522 | 67 | 108 | 4.0 | 9.0 | 0.00 | 0.00 | 0.00 | 65 | 1011.2 |
| 20260506150025 | 67 | 82 | 3.0 | 11.0 | 0.00 | 0.00 | 0.00 | 65 | 1011.2 |
| 20260506144526 | 66 | 127 | 3.0 | 12.0 | 0.00 | 0.00 | 0.00 | 67 | 1011.4 |
| 20260506143016 | 66 | 198 | 2.0 | 8.0 | 0.00 | 0.00 | 0.00 | 67 | 1011.1 |
| 20260506141520 | 65 | 123 | 3.0 | 9.0 | 0.00 | 0.00 | 0.00 | 68 | 1011.5 |
| 20260506140024 | 65 | 145 | 2.0 | 6.0 | 0.00 | 0.00 | 0.00 | 69 | 1011.2 |
| 20260506134526 | 64 | 212 | 1.0 | 9.0 | 0.00 | 0.00 | 0.00 | 71 | 1011.2 |
| 20260506133026 | 63 | 123 | 2.0 | 9.0 | 0.00 | 0.00 | 0.00 | 72 | 1011.6 |
| 20260506131537 | 62 | 132 | 2.0 | 10.0 | 0.00 | 0.00 | 0.00 | 73 | 1011.9 |
| 20260506130034 | 61 | 150 | 4.0 | 8.0 | 0.00 | 0.00 | 0.00 | 75 | 1011.8 |
| 20260506124524 | 61 | 248 | 3.0 | 9.0 | 0.00 | 0.00 | 0.00 | 77 | 1011.7 |
| 20260506123026 | 60 | 61 | 3.0 | 7.0 | 0.00 | 0.00 | 0.00 | 79 | 1011.7 |
| 20260506121526 | 59 | 154 | 1.0 | 6.0 | 0.00 | 0.00 | 0.00 | 81 | 1011.7 |
| 20260506120021 | 58 | 179 | 3.0 | 6.0 | 0.00 | 0.00 | 0.00 | 82 | 1011.9 |
| 20260506114523 | 57 | 189 | 1.0 | 8.0 | 0.00 | 0.00 | 0.00 | 83 | 1012.3 |
| 20260506113026 | 57 | 113 | 1.0 | 9.0 | 0.00 | 0.00 | 0.00 | 84 | 1012.3 |
| 20260506111525 | 57 | 126 | 1.0 | 5.0 | 0.00 | 0.00 | 0.00 | 86 | 1012.2 |
| 20260506110015 | 56 | 136 | 0.0 | 5.0 | 0.00 | 0.00 | 0.00 | 86 | 1012.2 |
| 20260506104519 | 56 | 240 | 0.0 | 6.0 | 0.00 | 0.00 | 0.00 | 86 | 1012.3 |
| 20260506103003 | 56 | 294 | 2.0 | 6.0 | 0.00 | 0.00 | 0.00 | 86 | 1012.1 |
| 20260506101509 | 56 | 114 | 0.0 | 7.0 | 0.00 | 0.00 | 0.00 | 86 | 1012.0 |
| 20260506100016 | 56 | 80 | 0.0 | 9.0 | 0.00 | 0.00 | 0.00 | 86 | 1011.8 |